Time;durP1;ratioP1;P1;durP2;ratioP2;P2;SDS_P1;SDS_P2;PMS_P1;PMS_P2;Temp;Humidity;BMP_temperature;BMP_pressure;BME280_temperature;BME280_humidity;BME280_pressure;Samples;Min_cycle;Max_cycle;Signal;HPM_P1;HPM_P2
2022/06/27 00:02:12;;;;;;;9.93;3.22;;;;;;;27.95;40.66;95746.97;4950617;28;20284;-82
2022/06/27 00:04:39;;;;;;;12.38;3.70;;;;;;;27.97;41.02;95747.44;4948748;28;20229;-82
2022/06/27 00:07:06;;;;;;;13.75;3.42;;;;;;;27.95;40.42;95749.75;4964101;28;20241;-81
2022/06/27 00:09:33;;;;;;;7.68;3.20;;;;;;;27.96;40.92;95754.16;4968853;28;20243;-82
2022/06/27 00:12:02;;;;;;;9.13;3.30;;;;;;;27.86;41.30;95750.72;4946685;28;20216;-82
2022/06/27 00:14:29;;;;;;;10.35;3.17;;;;;;;27.86;42.52;95759.06;4960744;28;20287;-82
2022/06/27 00:16:56;;;;;;;10.32;3.25;;;;;;;27.79;41.93;95755.28;4952150;28;20221;-81
2022/06/27 00:19:23;;;;;;;10.45;3.22;;;;;;;27.72;42.21;95772.53;4948487;28;20204;-82
2022/06/27 00:21:50;;;;;;;7.43;2.95;;;;;;;27.68;47.28;95771.63;4950683;28;20272;-82
2022/06/27 00:24:18;;;;;;;6.15;3.00;;;;;;;27.11;57.15;95807.94;4968477;28;20225;-82
2022/06/27 00:26:45;;;;;;;3.65;2.70;;;;;;;26.55;61.86;95829.03;4950122;28;20233;-82
2022/06/27 00:29:13;;;;;;;2.88;2.63;;;;;;;25.79;67.07;95819.28;4948135;28;20205;-81
2022/06/27 00:31:40;;;;;;;5.35;2.60;;;;;;;25.48;69.14;95818.88;4949906;28;20209;-81
2022/06/27 00:34:08;;;;;;;3.00;2.70;;;;;;;25.32;70.53;95828.94;4949863;28;20209;-82
2022/06/27 00:36:35;;;;;;;5.75;2.80;;;;;;;25.26;71.08;95823.59;4971771;28;20272;-82
2022/06/27 00:39:03;;;;;;;4.70;2.78;;;;;;;25.11;74.96;95840.78;4952436;28;20204;-81
2022/06/27 00:41:30;;;;;;;3.28;2.67;;;;;;;24.91;76.39;95836.06;4961918;28;20267;-81
2022/06/27 00:43:57;;;;;;;3.60;2.83;;;;;;;24.74;78.25;95844.41;4950385;28;20205;-82
2022/06/27 00:46:25;;;;;;;5.57;3.00;;;;;;;24.62;78.78;95858.09;4945825;28;20228;-81
2022/06/27 00:48:52;;;;;;;4.70;2.50;;;;;;;24.53;79.86;95858.13;4947166;28;20205;-81
2022/06/27 00:51:19;;;;;;;2.83;2.40;;;;;;;24.36;81.51;95861.75;4949278;28;20209;-81
2022/06/27 00:53:47;;;;;;;3.55;2.55;;;;;;;24.34;81.52;95846.66;4947955;28;20304;-81
2022/06/27 00:56:14;;;;;;;3.33;3.03;;;;;;;24.33;81.97;95881.72;4946239;28;20288;-81
2022/06/27 00:58:41;;;;;;;5.28;2.95;;;;;;;24.01;84.55;95877.56;4944084;28;20233;-82
2022/06/27 01:01:08;;;;;;;2.88;2.67;;;;;;;23.99;85.44;95895.56;4947288;28;20223;-80
2022/06/27 01:03:37;;;;;;;3.10;2.80;;;;;;;23.98;85.23;95918.78;4963463;28;20209;-81
2022/06/27 01:06:04;;;;;;;5.15;2.80;;;;;;;23.97;86.15;95920.72;4959613;28;20588;-81
2022/06/27 01:08:31;;;;;;;4.15;3.00;;;;;;;23.87;86.88;95915.53;4949336;28;20205;-81
2022/06/27 01:10:58;;;;;;;2.95;2.75;;;;;;;23.86;87.73;95924.13;4948863;28;20197;-81
2022/06/27 01:13:26;;;;;;;2.85;2.65;;;;;;;23.83;88.22;95916.50;4963862;28;20213;-81
2022/06/27 01:15:54;;;;;;;3.20;2.80;;;;;;;23.78;88.46;95909.22;4950673;28;20290;-80
2022/06/27 01:18:21;;;;;;;3.85;2.88;;;;;;;23.61;89.72;95915.53;4945358;28;20223;-81
2022/06/27 01:20:49;;;;;;;3.45;2.70;;;;;;;23.62;90.02;95930.13;4951298;28;20213;-81
2022/06/27 01:23:18;;;;;;;3.15;2.80;;;;;;;23.56;90.60;95937.72;4941703;28;20221;-81
2022/06/27 01:25:45;;;;;;;3.47;3.17;;;;;;;23.50;90.99;95925.25;4946610;28;20228;-81
2022/06/27 01:28:13;;;;;;;3.28;2.97;;;;;;;23.48;91.56;95935.75;4944644;28;20217;-81
2022/06/27 01:30:40;;;;;;;3.15;2.85;;;;;;;23.37;92.07;95951.81;4945089;28;20205;-81
2022/06/27 01:33:08;;;;;;;3.30;2.95;;;;;;;23.43;92.22;95955.19;4953403;28;20212;-81
2022/06/27 01:35:38;;;;;;;5.40;3.22;;;;;;;23.42;92.07;95961.03;4963447;28;20256;-82
2022/06/27 01:38:06;;;;;;;7.30;2.83;;;;;;;23.43;92.00;95968.16;4953429;28;20212;-81
2022/06/27 01:40:35;;;;;;;3.08;2.80;;;;;;;23.39;92.61;95968.78;4952354;28;20206;-81
2022/06/27 01:43:02;;;;;;;3.10;2.90;;;;;;;23.30;93.32;95976.25;4957067;28;20209;-81
2022/06/27 01:45:30;;;;;;;3.40;3.10;;;;;;;23.17;94.17;95973.59;4968469;28;20331;-81
2022/06/27 01:47:57;;;;;;;4.45;2.80;;;;;;;23.08;94.33;95975.53;4966269;28;20300;-81
2022/06/27 01:50:26;;;;;;;3.65;2.80;;;;;;;23.08;94.24;95973.56;4945458;28;20260;-81
2022/06/27 01:52:55;;;;;;;3.60;2.80;;;;;;;23.12;94.42;95971.81;4951294;28;20215;-80
2022/06/27 01:55:24;;;;;;;5.82;3.05;;;;;;;23.05;94.64;95968.72;4963805;28;20210;-81
2022/06/27 01:57:53;;;;;;;4.30;2.80;;;;;;;23.04;94.73;95980.88;4951317;28;20293;-81
2022/06/27 02:00:20;;;;;;;3.20;2.92;;;;;;;23.01;95.12;95985.06;4951102;28;20232;-81
2022/06/27 02:03:01;;;;;;;3.00;2.80;;;;;;;22.97;95.77;95991.50;4968690;28;20235;-82
2022/06/27 02:05:35;;;;;;;4.40;2.90;;;;;;;22.91;96.27;95982.59;4945620;28;20252;-81
2022/06/27 02:08:04;;;;;;;3.08;2.78;;;;;;;22.95;96.57;95982.78;4964019;28;20209;-81
2022/06/27 02:10:32;;;;;;;3.50;3.17;;;;;;;22.87;96.99;95967.84;4949999;28;20293;-81
2022/06/27 02:13:01;;;;;;;3.20;2.90;;;;;;;22.86;96.92;95976.41;4951005;28;20217;-81
2022/06/27 02:15:28;;;;;;;4.30;3.00;;;;;;;22.83;97.25;95972.34;4950673;28;20216;-81
2022/06/27 02:17:55;;;;;;;3.50;2.72;;;;;;;22.78;97.41;95971.69;4950167;28;20208;-80
2022/06/27 02:20:23;;;;;;;3.90;3.15;;;;;;;22.83;97.52;95979.78;4951272;28;20208;-81
2022/06/27 02:22:50;;;;;;;4.53;2.83;;;;;;;22.85;97.42;95974.78;4951582;28;20212;-81
2022/06/27 02:25:17;;;;;;;6.38;3.47;;;;;;;22.85;97.42;95966.53;4967993;28;20233;-81
2022/06/27 02:27:48;;;;;;;3.50;3.20;;;;;;;22.81;97.81;95966.34;4954975;28;20264;-80
2022/06/27 02:30:17;;;;;;;3.28;2.97;;;;;;;22.63;99.62;95959.91;4948939;28;20200;-80
2022/06/27 02:32:44;;;;;;;3.20;2.90;;;;;;;22.44;100.00;95955.78;4948874;28;20232;-82
2022/06/27 02:35:12;;;;;;;7.72;3.25;;;;;;;22.41;100.00;95961.91;4952210;28;20209;-81
2022/06/27 02:37:43;;;;;;;4.40;2.72;;;;;;;22.39;100.00;95959.47;4950310;28;20212;-81
2022/06/27 02:40:11;;;;;;;3.20;2.95;;;;;;;22.36;100.00;95945.53;4952346;28;20248;-81
2022/06/27 02:42:39;;;;;;;4.03;3.10;;;;;;;22.39;100.00;95962.22;4951227;28;20217;-81
2022/06/27 02:45:07;;;;;;;4.55;3.00;;;;;;;22.41;100.00;95957.22;4951746;28;20205;-81
2022/06/27 02:47:38;;;;;;;5.10;4.60;;;;;;;22.49;100.00;95945.44;4967544;28;20236;-80
2022/06/27 02:50:06;;;;;;;11.82;10.82;;;;;;;22.57;100.00;95961.19;4953501;28;20205;-81
2022/06/27 02:52:42;;;;;;;12.02;10.93;;;;;;;22.50;100.00;95944.31;4952499;28;20197;-82
2022/06/27 02:55:13;;;;;;;7.13;5.10;;;;;;;22.53;100.00;95948.41;4951131;28;20211;-81
2022/06/27 02:57:48;;;;;;;6.07;5.50;;;;;;;22.46;100.00;95940.56;4967775;28;20245;-82
2022/06/27 03:00:17;;;;;;;7.38;6.72;;;;;;;22.47;100.00;95944.94;4966944;28;20205;-81
2022/06/27 03:02:46;;;;;;;3.75;3.45;;;;;;;22.45;100.00;95933.47;4952769;28;20300;-81
2022/06/27 03:05:14;;;;;;;3.92;3.28;;;;;;;22.31;100.00;95929.97;4968235;28;20312;-81
2022/06/27 03:07:43;;;;;;;3.15;2.85;;;;;;;22.22;100.00;95929.09;4950749;28;20339;-81
2022/06/27 03:10:11;;;;;;;3.17;2.60;;;;;;;22.15;100.00;95932.31;4938677;28;20205;-82
2022/06/27 03:12:40;;;;;;;4.82;3.80;;;;;;;22.18;100.00;95931.69;4966215;28;20205;-82
2022/06/27 03:15:09;;;;;;;3.83;3.28;;;;;;;22.17;100.00;95929.25;4949194;28;21456;-81
2022/06/27 03:17:37;;;;;;;2.92;2.72;;;;;;;22.22;100.00;95918.91;4968375;28;20200;-81
2022/06/27 03:20:24;;;;;;;6.55;3.20;;;;;;;22.19;100.00;95924.25;4956134;28;20220;-81
2022/06/27 03:23:01;;;;;;;3.35;3.05;;;;;;;22.14;100.00;95908.69;4951897;28;20276;-82
2022/06/27 03:25:30;;;;;;;3.13;2.80;;;;;;;22.22;100.00;95920.84;4951277;28;20217;-82
2022/06/27 03:27:58;;;;;;;5.28;4.32;;;;;;;22.12;100.00;95915.63;4949186;28;20213;-81
2022/06/27 03:30:25;;;;;;;4.93;4.25;;;;;;;22.02;100.00;95915.91;4942666;28;20209;-81
2022/06/27 03:32:52;;;;;;;4.53;3.40;;;;;;;21.90;100.00;95919.97;4967454;28;20268;-81
2022/06/27 03:35:25;;;;;;;4.55;3.40;;;;;;;21.84;100.00;95926.72;4950621;28;20212;-81
2022/06/27 03:37:52;;;;;;;3.40;3.10;;;;;;;21.86;100.00;95918.19;4950021;28;20209;-81
2022/06/27 03:40:19;;;;;;;3.30;3.00;;;;;;;21.91;100.00;95915.28;4961636;28;20212;-83
2022/06/27 03:42:50;;;;;;;4.13;3.10;;;;;;;22.01;100.00;95903.28;4945995;28;20275;-82
2022/06/27 03:45:18;;;;;;;5.70;3.22;;;;;;;21.96;100.00;95911.59;4947403;28;20209;-82
2022/06/27 03:47:49;;;;;;;5.18;3.28;;;;;;;21.84;100.00;95906.69;4961936;28;20259;-82
2022/06/27 03:50:35;;;;;;;4.18;3.47;;;;;;;21.83;100.00;95902.31;4961919;28;20206;-83
2022/06/27 03:53:04;;;;;;;3.55;3.25;;;;;;;21.74;100.00;95905.00;4948443;28;20205;-82
2022/06/27 03:55:34;;;;;;;3.30;3.00;;;;;;;21.73;100.00;95914.34;4949146;28;20229;-83
2022/06/27 03:58:02;;;;;;;3.50;3.20;;;;;;;21.65;100.00;95912.34;4951633;28;20295;-82
2022/06/27 04:00:34;;;;;;;3.60;3.30;;;;;;;21.63;100.00;95902.78;4950237;28;20224;-81
2022/06/27 04:03:04;;;;;;;3.30;2.78;;;;;;;21.67;100.00;95887.31;4936272;28;20267;-82
2022/06/27 04:05:47;;;;;;;3.90;3.30;;;;;;;21.60;100.00;95890.50;4949767;28;20216;-83
2022/06/27 04:08:14;;;;;;;3.50;3.20;;;;;;;21.55;100.00;95896.09;4950704;28;20201;-82
2022/06/27 04:10:43;;;;;;;3.92;3.17;;;;;;;21.66;100.00;95910.41;4944281;28;20233;-81
2022/06/27 04:13:10;;;;;;;5.18;2.78;;;;;;;21.75;100.00;95897.56;4961308;28;20208;-83
2022/06/27 04:15:40;;;;;;;4.20;3.03;;;;;;;21.78;100.00;95894.97;4965554;28;20201;-82
2022/06/27 04:18:26;;;;;;;3.15;2.85;;;;;;;21.80;100.00;95895.50;4967323;28;20211;-82
2022/06/27 04:20:57;;;;;;;3.45;3.13;;;;;;;21.76;100.00;95908.25;4966398;28;20280;-82
2022/06/27 04:23:30;;;;;;;4.13;3.35;;;;;;;21.72;100.00;95901.72;4965107;28;20222;-82
2022/06/27 04:26:17;;;;;;;3.67;2.80;;;;;;;21.68;100.00;95900.75;4940285;28;20236;-83
2022/06/27 04:28:45;;;;;;;3.97;2.85;;;;;;;21.60;100.00;95896.00;4966272;28;20236;-82
2022/06/27 04:31:13;;;;;;;3.00;2.65;;;;;;;21.56;100.00;95902.41;4960709;28;20205;-82
2022/06/27 04:33:40;;;;;;;4.60;2.60;;;;;;;21.52;100.00;95908.50;4962701;28;20209;-82
2022/06/27 04:36:09;;;;;;;4.88;2.70;;;;;;;21.66;100.00;95913.16;4949950;28;20212;-81
2022/06/27 04:38:38;;;;;;;2.70;2.50;;;;;;;21.63;100.00;95906.34;4948195;28;20220;-81
2022/06/27 04:41:31;;;;;;;3.42;2.88;;;;;;;21.61;100.00;95905.84;4946409;28;20343;-81
2022/06/27 04:43:58;;;;;;;3.00;2.65;;;;;;;21.68;100.00;95894.44;4952218;28;20213;-82
2022/06/27 04:46:26;;;;;;;2.85;2.55;;;;;;;21.77;100.00;95896.13;4945538;28;20221;-82
2022/06/27 04:48:56;;;;;;;3.50;2.40;;;;;;;21.79;100.00;95913.09;4966692;28;20201;-81
2022/06/27 04:51:24;;;;;;;2.45;2.25;;;;;;;21.77;100.00;95909.88;4949685;28;20307;-81
2022/06/27 04:53:52;;;;;;;2.47;2.17;;;;;;;21.76;100.00;95908.25;4949228;28;20205;-81
2022/06/27 04:56:20;;;;;;;2.30;2.10;;;;;;;21.79;100.00;95907.59;4950380;28;20311;-82
2022/06/27 04:58:47;;;;;;;2.95;2.40;;;;;;;21.76;100.00;95913.75;4952904;28;20224;-81
2022/06/27 05:01:17;;;;;;;3.20;1.88;;;;;;;21.66;100.00;95919.47;4962916;28;20213;-81
2022/06/27 05:04:01;;;;;;;2.20;2.00;;;;;;;21.65;100.00;95912.34;4945768;28;20267;-82
2022/06/27 05:06:34;;;;;;;2.03;1.90;;;;;;;21.64;100.00;95934.63;4951513;28;20349;-82
2022/06/27 05:09:03;;;;;;;2.67;2.10;;;;;;;21.57;100.00;95926.84;4970616;28;20223;-82
2022/06/27 05:11:31;;;;;;;2.70;1.90;;;;;;;21.58;100.00;95927.66;4948740;28;20245;-82
2022/06/27 05:13:58;;;;;;;3.25;1.95;;;;;;;21.60;100.00;95931.72;4969775;28;20291;-81
2022/06/27 05:16:45;;;;;;;3.30;2.15;;;;;;;21.56;100.00;95935.38;4955591;28;20205;-82
2022/06/27 05:19:13;;;;;;;3.40;2.28;;;;;;;21.55;100.00;95947.47;4951975;28;20220;-82
2022/06/27 05:21:43;;;;;;;1.75;1.65;;;;;;;21.54;100.00;95946.66;4964431;28;20252;-82
2022/06/27 05:24:12;;;;;;;2.15;1.70;;;;;;;21.55;100.00;95972.22;4949673;28;20210;-82
2022/06/27 05:26:39;;;;;;;1.73;1.50;;;;;;;21.48;100.00;95958.91;4970560;28;20319;-82
2022/06/27 05:29:07;;;;;;;2.85;1.60;;;;;;;21.39;100.00;95950.59;4973026;28;20275;-83
2022/06/27 05:31:35;;;;;;;1.70;1.60;;;;;;;21.42;100.00;95974.69;4964213;28;20217;-82
2022/06/27 05:34:03;;;;;;;2.13;1.60;;;;;;;21.35;100.00;95968.00;4969194;28;20211;-83
2022/06/27 05:36:30;;;;;;;2.25;1.40;;;;;;;21.21;100.00;95967.19;4950027;28;20204;-83
2022/06/27 05:38:59;;;;;;;3.22;1.60;;;;;;;21.18;100.00;95989.78;4951559;28;20205;-83
2022/06/27 05:41:27;;;;;;;2.90;1.40;;;;;;;21.10;100.00;95985.75;4944377;28;20205;-83
2022/06/27 05:44:00;;;;;;;2.25;1.60;;;;;;;21.07;100.00;95981.72;4952636;28;20214;-83
2022/06/27 05:46:28;;;;;;;2.38;1.58;;;;;;;20.96;100.00;95984.97;4962356;28;20236;-83
2022/06/27 05:49:14;;;;;;;1.77;1.50;;;;;;;21.02;100.00;95992.78;4970890;28;20216;-83
2022/06/27 05:51:54;;;;;;;4.38;1.60;;;;;;;21.06;100.00;95993.81;4952545;28;20201;-83
2022/06/27 05:54:23;;;;;;;1.80;1.70;;;;;;;21.13;100.00;96004.38;4961727;28;20212;-83
2022/06/27 05:56:51;;;;;;;1.88;1.50;;;;;;;21.15;100.00;96002.16;4958656;28;20225;-83
2022/06/27 05:59:19;;;;;;;2.08;1.48;;;;;;;21.14;100.00;96006.00;4954455;28;20228;-82
2022/06/27 06:01:49;;;;;;;1.88;1.60;;;;;;;21.15;100.00;96016.69;4961140;28;20202;-80
2022/06/27 06:04:17;;;;;;;1.45;1.35;;;;;;;21.19;100.00;96014.16;4951262;28;20291;-81
2022/06/27 06:06:45;;;;;;;3.05;1.50;;;;;;;21.15;100.00;96032.34;4945494;28;20224;-81
2022/06/27 06:09:13;;;;;;;2.55;1.60;;;;;;;21.20;100.00;96025.97;4963209;28;20213;-80
2022/06/27 06:11:42;;;;;;;3.47;1.58;;;;;;;21.27;100.00;96021.69;4968033;28;20200;-80
2022/06/27 06:14:10;;;;;;;2.00;1.50;;;;;;;21.25;100.00;96028.63;4948194;28;20304;-80
2022/06/27 06:16:38;;;;;;;1.50;1.40;;;;;;;21.23;99.96;96033.59;4943714;28;20232;-80
2022/06/27 06:19:05;;;;;;;3.42;1.70;;;;;;;21.25;99.78;96036.84;4964596;28;20217;-80
2022/06/27 06:21:33;;;;;;;2.17;1.63;;;;;;;21.18;99.53;96031.75;4946743;28;20206;-80
2022/06/27 06:24:01;;;;;;;1.98;1.45;;;;;;;21.19;99.51;96036.13;4943088;28;20213;-80
2022/06/27 06:26:28;;;;;;;1.70;1.40;;;;;;;21.21;99.98;96050.38;4968361;28;20209;-80
2022/06/27 06:28:58;;;;;;;3.30;1.83;;;;;;;21.26;99.59;96046.72;4962626;28;20213;-80
2022/06/27 06:31:26;;;;;;;2.55;1.50;;;;;;;21.25;99.45;96036.84;4951914;28;20280;-80
2022/06/27 06:33:56;;;;;;;1.60;1.50;;;;;;;21.29;99.20;96046.09;4965959;28;20215;-79
2022/06/27 06:36:24;;;;;;;1.60;1.40;;;;;;;21.33;99.05;96052.63;4964763;28;20216;-80
2022/06/27 06:38:52;;;;;;;1.60;1.40;;;;;;;21.31;99.41;96049.34;4951147;28;20208;-80
2022/06/27 06:41:21;;;;;;;2.95;1.40;;;;;;;21.33;99.34;96053.44;4946644;28;20202;-80
2022/06/27 06:43:48;;;;;;;2.85;1.48;;;;;;;21.45;98.81;96061.13;4944192;28;20263;-79
2022/06/27 06:46:35;;;;;;;1.50;1.40;;;;;;;21.55;97.27;96063.69;4959303;28;20217;-80
2022/06/27 06:49:07;;;;;;;1.55;1.40;;;;;;;21.56;96.56;96059.81;4946504;28;20220;-79
2022/06/27 06:51:37;;;;;;;2.55;1.50;;;;;;;21.56;97.13;96068.06;4941490;28;20224;-79
2022/06/27 06:54:05;;;;;;;1.50;1.40;;;;;;;21.49;97.02;96068.47;4946004;28;20231;-80
2022/06/27 06:56:33;;;;;;;1.40;1.30;;;;;;;21.62;96.61;96072.31;4966954;28;20229;-80
2022/06/27 06:59:02;;;;;;;1.63;1.27;;;;;;;21.61;95.80;96078.94;4958310;28;20236;-80
2022/06/27 07:01:31;;;;;;;2.33;1.48;;;;;;;21.65;95.67;96068.16;4939380;28;20217;-80
2022/06/27 07:04:00;;;;;;;1.45;1.35;;;;;;;21.63;95.35;96073.13;4951234;28;20299;-79
2022/06/27 07:06:29;;;;;;;3.60;1.55;;;;;;;21.70;94.78;96092.75;4965813;28;20213;-80
2022/06/27 07:08:58;;;;;;;1.52;1.40;;;;;;;21.75;94.34;96076.19;4965120;28;20239;-80
2022/06/27 07:11:27;;;;;;;2.53;1.40;;;;;;;21.80;94.94;96076.88;4962041;28;20219;-80
2022/06/27 07:13:56;;;;;;;2.55;1.50;;;;;;;21.83;95.05;96084.50;4948129;28;20218;-79
2022/06/27 07:16:24;;;;;;;3.75;1.80;;;;;;;21.90;94.27;96079.41;4953541;28;20218;-79
2022/06/27 07:18:53;;;;;;;3.35;1.60;;;;;;;21.83;95.10;96079.03;4948288;28;20303;-79
2022/06/27 07:21:21;;;;;;;1.80;1.50;;;;;;;21.96;95.65;96088.34;4947835;28;20219;-78
2022/06/27 07:23:50;;;;;;;2.33;1.38;;;;;;;22.15;95.19;96080.78;4951336;28;20299;-78
2022/06/27 07:26:19;;;;;;;2.63;1.60;;;;;;;22.32;93.42;96082.06;4960484;28;20292;-78
2022/06/27 07:28:48;;;;;;;1.98;1.40;;;;;;;22.47;91.45;96096.25;4964297;28;20229;-78
2022/06/27 07:31:16;;;;;;;3.05;1.42;;;;;;;22.72;90.94;96088.50;4963686;28;20363;-78
2022/06/27 07:33:45;;;;;;;2.42;1.30;;;;;;;22.81;90.34;96086.66;4961299;28;20209;-79
2022/06/27 07:36:14;;;;;;;1.40;1.30;;;;;;;22.85;91.09;96093.97;4956326;28;20209;-79
2022/06/27 07:38:43;;;;;;;3.03;1.42;;;;;;;23.12;89.27;96095.75;4949147;28;20209;-79
2022/06/27 07:41:10;;;;;;;2.65;1.65;;;;;;;23.25;87.64;96092.09;4948117;28;20280;-79
2022/06/27 07:43:38;;;;;;;2.22;1.60;;;;;;;23.32;86.12;96097.94;4951172;28;20201;-79
2022/06/27 07:46:05;;;;;;;2.60;1.63;;;;;;;23.32;87.07;96103.44;4943279;28;20224;-78
2022/06/27 07:48:33;;;;;;;5.03;1.70;;;;;;;23.44;86.50;96094.59;4942290;28;20228;-79
2022/06/27 07:51:01;;;;;;;4.20;1.63;;;;;;;23.89;84.70;96102.72;4941402;28;20395;-79
2022/06/27 07:53:29;;;;;;;2.67;1.70;;;;;;;24.04;84.07;96100.31;4960166;28;20260;-79
2022/06/27 07:55:58;;;;;;;2.40;1.48;;;;;;;24.14;82.74;96094.50;4947238;28;20229;-79
2022/06/27 07:58:30;;;;;;;2.92;1.67;;;;;;;24.24;82.81;96098.91;4954431;28;20240;-79
2022/06/27 08:00:59;;;;;;;1.50;1.40;;;;;;;24.22;79.40;96108.63;4943891;28;20209;-79
2022/06/27 08:03:40;;;;;;;2.35;1.48;;;;;;;24.15;78.27;96100.81;4961901;28;20264;-79
2022/06/27 08:06:10;;;;;;;3.28;1.42;;;;;;;24.08;78.92;96104.03;4958541;28;20302;-79
2022/06/27 08:08:39;;;;;;;1.40;1.30;;;;;;;24.23;77.62;96105.56;4954324;28;20312;-79
2022/06/27 08:11:10;;;;;;;1.83;1.30;;;;;;;24.37;76.18;96119.19;4961278;28;20220;-79
2022/06/27 08:13:37;;;;;;;1.48;1.10;;;;;;;24.39;74.20;96111.41;4961888;28;20209;-79
2022/06/27 08:16:06;;;;;;;1.65;1.27;;;;;;;24.56;73.62;96124.41;4957305;28;20214;-79
2022/06/27 08:18:33;;;;;;;2.65;1.15;;;;;;;24.58;73.14;96120.19;4961614;28;20216;-82
2022/06/27 08:21:00;;;;;;;3.13;1.20;;;;;;;24.61;71.79;96111.25;4962024;28;20236;-79
2022/06/27 08:23:28;;;;;;;1.73;1.17;;;;;;;24.49;72.97;96127.66;4943489;28;20224;-82
2022/06/27 08:25:56;;;;;;;1.98;1.20;;;;;;;24.53;72.90;96117.56;4950979;28;20220;-79
2022/06/27 08:28:26;;;;;;;1.30;1.00;;;;;;;24.67;72.79;96120.19;4953217;28;20243;-79
2022/06/27 08:30:54;;;;;;;1.20;1.10;;;;;;;24.74;71.88;96132.38;4941785;28;20349;-79
2022/06/27 08:33:23;;;;;;;1.40;1.10;;;;;;;24.66;72.56;96116.63;4947014;28;20213;-79
2022/06/27 08:35:51;;;;;;;1.10;1.00;;;;;;;24.44;71.08;96122.28;4956022;28;20213;-79
2022/06/27 08:38:20;;;;;;;2.33;1.10;;;;;;;24.44;72.61;96122.28;4949177;28;20211;-79
2022/06/27 08:40:48;;;;;;;1.20;1.00;;;;;;;24.33;73.68;96130.06;4966048;28;20256;-79
2022/06/27 08:43:16;;;;;;;1.20;1.10;;;;;;;24.43;72.95;96120.66;4959541;28;20208;-79
2022/06/27 08:45:47;;;;;;;1.10;1.00;;;;;;;24.59;72.36;96132.00;4963829;28;20213;-79
2022/06/27 08:48:14;;;;;;;1.40;1.20;;;;;;;24.84;70.82;96132.00;4957309;28;20217;-79
2022/06/27 08:50:42;;;;;;;1.67;1.00;;;;;;;24.75;71.65;96125.69;4943718;28;20197;-79
2022/06/27 08:53:12;;;;;;;1.10;1.00;;;;;;;24.81;72.23;96140.97;4948628;28;20216;-79
2022/06/27 08:55:44;;;;;;;1.05;1.05;;;;;;;24.85;70.54;96133.63;4962699;28;20223;-79
2022/06/27 08:58:12;;;;;;;1.20;1.10;;;;;;;25.04;69.25;96141.59;4963503;28;20247;-79
2022/06/27 09:00:40;;;;;;;0.98;0.90;;;;;;;25.03;68.35;96151.03;4953242;28;20255;-79
2022/06/27 09:03:10;;;;;;;2.03;0.95;;;;;;;24.84;69.97;96147.75;4958805;28;20209;-79
2022/06/27 09:05:37;;;;;;;1.02;0.93;;;;;;;24.84;69.37;96143.06;4963218;28;20272;-79
2022/06/27 09:08:08;;;;;;;1.15;1.00;;;;;;;24.90;69.38;96157.53;4948061;28;20439;-79
2022/06/27 09:10:39;;;;;;;2.20;1.05;;;;;;;24.80;68.90;96147.63;4938886;28;20210;-79
2022/06/27 09:13:09;;;;;;;2.22;0.90;;;;;;;24.48;70.35;96146.16;4946971;28;20216;-80
2022/06/27 09:15:50;;;;;;;0.90;0.90;;;;;;;24.50;72.88;96148.56;4947970;28;20299;-79
2022/06/27 09:18:21;;;;;;;1.55;1.10;;;;;;;24.49;71.87;96146.97;4946255;28;20330;-79
2022/06/27 09:20:51;;;;;;;1.77;1.00;;;;;;;24.69;70.50;96154.59;4963170;28;20220;-80
2022/06/27 09:23:35;;;;;;;2.00;1.10;;;;;;;24.87;68.65;96160.94;4938951;28;20201;-79
2022/06/27 09:26:05;;;;;;;1.95;1.10;;;;;;;24.70;71.24;96161.75;4961749;28;20239;-80
2022/06/27 09:28:50;;;;;;;1.60;1.15;;;;;;;24.71;71.23;96149.56;4958600;28;20225;-80
2022/06/27 09:31:32;;;;;;;1.13;1.00;;;;;;;24.98;69.74;96165.03;4948281;28;20274;-80
2022/06/27 09:34:10;;;;;;;2.55;1.10;;;;;;;24.76;72.79;96165.97;4944054;28;20264;-79
2022/06/27 09:36:40;;;;;;;1.17;1.08;;;;;;;24.94;72.00;96163.22;4951588;28;20339;-80
2022/06/27 09:39:11;;;;;;;1.80;1.02;;;;;;;24.96;70.29;96178.34;4963389;28;20227;-80
2022/06/27 09:41:40;;;;;;;2.20;1.20;;;;;;;24.78;71.01;96165.63;4970414;28;20213;-80
2022/06/27 09:44:11;;;;;;;1.27;1.17;;;;;;;24.54;73.98;96184.63;4949066;28;20212;-80
2022/06/27 09:46:43;;;;;;;1.20;1.10;;;;;;;24.42;73.74;96175.03;4966196;28;20216;-79
2022/06/27 09:49:14;;;;;;;2.17;1.23;;;;;;;24.42;74.05;96188.03;4949683;28;20237;-80
2022/06/27 09:51:42;;;;;;;1.40;1.10;;;;;;;24.45;73.68;96201.19;4944736;28;20216;-80
2022/06/27 09:54:11;;;;;;;2.20;1.40;;;;;;;24.44;72.41;96192.09;4964535;28;20206;-80
2022/06/27 09:56:41;;;;;;;1.98;1.10;;;;;;;24.38;73.55;96206.38;4969049;28;20252;-81
2022/06/27 09:59:09;;;;;;;2.53;1.25;;;;;;;;;;4966007;28;20238;-80
2022/06/27 10:01:37;;;;;;;2.38;1.58;;;;;;;24.44;75.24;96207.84;4968816;28;20209;-80
2022/06/27 10:04:05;;;;;;;1.85;1.35;;;;;;;24.55;74.22;96208.34;4947376;28;20667;-80
2022/06/27 10:06:35;;;;;;;1.63;1.30;;;;;;;24.60;73.07;96208.19;4967278;28;20215;-80
2022/06/27 10:09:04;;;;;;;2.88;1.10;;;;;;;24.49;73.69;96221.50;4967215;28;20311;-80
2022/06/27 10:11:31;;;;;;;3.85;1.15;;;;;;;24.45;73.15;96215.81;4953208;28;20197;-80
2022/06/27 10:14:19;;;;;;;1.38;1.05;;;;;;;24.42;72.85;96230.22;4951347;28;20209;-80
2022/06/27 10:16:55;;;;;;;1.42;1.30;;;;;;;24.58;73.04;96227.03;4950878;28;20219;-80
2022/06/27 10:19:23;;;;;;;1.83;1.27;;;;;;;24.59;72.86;96217.59;4967010;28;20231;-80
2022/06/27 10:21:53;;;;;;;1.63;1.10;;;;;;;24.86;72.85;96229.16;4952869;28;20248;-80
2022/06/27 10:24:34;;;;;;;1.98;1.20;;;;;;;25.06;70.96;96226.91;4949142;28;20240;-82
2022/06/27 10:27:04;;;;;;;2.55;1.20;;;;;;;25.01;72.20;96230.63;4949738;28;20217;-80
2022/06/27 10:29:42;;;;;;;3.80;1.00;;;;;;;24.85;73.26;96232.25;4947486;28;20233;-80
2022/06/27 10:32:44;;;;;;;1.20;0.98;;;;;;;24.85;74.26;96237.75;4964447;28;20204;-80
2022/06/27 10:35:17;;;;;;;1.45;1.35;;;;;;;25.15;72.41;96230.50;4948428;28;20212;-80
2022/06/27 10:37:47;;;;;;;3.45;1.38;;;;;;;25.14;72.00;96229.69;4951280;28;20227;-79
2022/06/27 10:40:51;;;;;;;1.40;1.30;;;;;;;25.26;72.15;96237.31;4946506;28;20222;-80
2022/06/27 10:43:41;;;;;;;4.13;1.20;;;;;;;25.49;71.71;96248.97;4967293;28;20225;-79
2022/06/27 10:46:43;;;;;;;1.73;1.25;;;;;;;25.28;71.42;96246.06;4951814;28;20280;-80
2022/06/27 10:49:20;;;;;;;1.27;1.17;;;;;;;25.20;70.42;96256.00;4908484;29;20333;-80
2022/06/27 10:51:48;;;;;;;1.48;1.30;;;;;;;25.07;73.39;96264.47;4908583;29;20258;-79
2022/06/27 10:54:17;;;;;;;3.90;1.10;;;;;;;25.04;73.43;96254.06;4938346;28;20213;-79
2022/06/27 10:56:46;;;;;;;1.30;1.20;;;;;;;25.23;73.03;96252.59;4968981;28;20232;-79
2022/06/27 11:00:03;;;;;;;1.52;1.20;;;;;;;25.41;73.67;96261.69;4955624;28;20214;-80
2022/06/27 11:02:33;;;;;;;1.23;1.13;;;;;;;25.61;71.67;96260.19;4948202;28;20204;-80
2022/06/27 11:05:01;;;;;;;1.30;1.20;;;;;;;25.47;70.88;96263.13;4949135;28;20263;-79
2022/06/27 11:07:29;;;;;;;2.13;1.40;;;;;;;25.43;72.41;96261.38;4960648;28;20214;-80
2022/06/27 11:09:58;;;;;;;1.40;1.30;;;;;;;25.58;72.12;96252.53;4942423;28;20245;-80
2022/06/27 11:12:36;;;;;;;1.83;1.40;;;;;;;25.56;71.81;96255.63;4966499;28;20216;-80
2022/06/27 11:15:04;;;;;;;1.40;1.30;;;;;;;25.62;70.32;96265.41;4947484;28;20215;-80
2022/06/27 11:17:37;;;;;;;1.40;1.30;;;;;;;25.61;71.02;96272.06;4943923;28;20223;-80
2022/06/27 11:20:20;;;;;;;1.90;1.35;;;;;;;25.23;72.38;96258.13;4963273;28;20217;-80
2022/06/27 11:22:51;;;;;;;2.50;1.52;;;;;;;25.41;72.55;96256.16;4964170;28;20255;-79
2022/06/27 11:25:22;;;;;;;2.00;1.30;;;;;;;25.35;71.99;96262.19;4949855;28;20217;-80
2022/06/27 11:27:53;;;;;;;3.00;1.40;;;;;;;25.52;71.53;96268.47;4975168;28;20204;-80
2022/06/27 11:33:18;;;;;;;3.75;1.35;;;;;;;25.84;70.61;96269.09;4963814;28;20213;-80
2022/06/27 11:35:45;;;;;;;1.33;1.20;;;;;;;25.76;69.61;96272.72;4968486;28;20267;-80
2022/06/27 11:38:13;;;;;;;1.60;1.20;;;;;;;25.72;70.47;96264.25;4963603;28;20284;-79
2022/06/27 11:40:41;;;;;;;2.28;1.48;;;;;;;25.76;68.48;96269.94;4961764;28;20213;-80
2022/06/27 11:43:09;;;;;;;2.25;1.27;;;;;;;25.69;68.32;96266.88;4945768;28;20263;-80
2022/06/27 11:45:41;;;;;;;1.67;1.27;;;;;;;25.44;69.71;96261.00;4950155;28;20223;-80
2022/06/27 11:48:16;;;;;;;2.33;1.50;;;;;;;25.57;68.95;96254.50;4942275;28;20261;-80
2022/06/27 11:50:44;;;;;;;1.73;1.40;;;;;;;25.65;68.05;96265.91;4958670;28;20241;-80